sensor_id;sensor_type;location;lat;lon;timestamp;pressure;altitude;pressure_sealevel;temperature;humidity
43683;BME280;29285;52.128;21.060;2023-02-11T00:00:08;101663.95;;;1.70;100.00
43683;BME280;29285;52.128;21.060;2023-02-11T00:05:30;101659.56;;;1.72;100.00
43683;BME280;29285;52.128;21.060;2023-02-11T00:10:33;101661.11;;;1.64;100.00
43683;BME280;29285;52.128;21.060;2023-02-11T00:15:34;101652.74;;;1.64;100.00
43683;BME280;29285;52.128;21.060;2023-02-11T00:20:39;101646.75;;;1.64;100.00
43683;BME280;29285;52.128;21.060;2023-02-11T00:25:41;101638.70;;;1.64;100.00
43683;BME280;29285;52.128;21.060;2023-02-11T00:30:42;101628.12;;;1.60;100.00
43683;BME280;29285;52.128;21.060;2023-02-11T00:35:46;101626.40;;;1.60;100.00
43683;BME280;29285;52.128;21.060;2023-02-11T00:41:07;101623.60;;;1.59;100.00
43683;BME280;29285;52.128;21.060;2023-02-11T00:46:31;101617.73;;;1.62;100.00
43683;BME280;29285;52.128;21.060;2023-02-11T00:51:32;101609.84;;;1.61;100.00
43683;BME280;29285;52.128;21.060;2023-02-11T01:01:53;101564.02;;;1.53;100.00
43683;BME280;29285;52.128;21.060;2023-02-11T01:12:41;101534.95;;;1.45;100.00
43683;BME280;29285;52.128;21.060;2023-02-11T01:17:44;101523.73;;;1.42;100.00
43683;BME280;29285;52.128;21.060;2023-02-11T01:22:45;101504.85;;;1.41;100.00
43683;BME280;29285;52.128;21.060;2023-02-11T01:27:49;101490.09;;;1.39;100.00
43683;BME280;29285;52.128;21.060;2023-02-11T01:32:50;101473.95;;;1.37;100.00
43683;BME280;29285;52.128;21.060;2023-02-11T01:38:18;101458.00;;;1.37;100.00
43683;BME280;29285;52.128;21.060;2023-02-11T01:43:19;101451.70;;;1.38;100.00
43683;BME280;29285;52.128;21.060;2023-02-11T01:48:24;101440.23;;;1.37;100.00
43683;BME280;29285;52.128;21.060;2023-02-11T01:53:27;101441.98;;;1.38;100.00
43683;BME280;29285;52.128;21.060;2023-02-11T01:58:47;101459.75;;;1.42;100.00
43683;BME280;29285;52.128;21.060;2023-02-11T02:03:51;101456.03;;;1.48;100.00
43683;BME280;29285;52.128;21.060;2023-02-11T02:08:54;101428.30;;;1.52;100.00
43683;BME280;29285;52.128;21.060;2023-02-11T02:20:02;101401.29;;;1.52;100.00
43683;BME280;29285;52.128;21.060;2023-02-11T02:25:18;101385.27;;;1.54;100.00
43683;BME280;29285;52.128;21.060;2023-02-11T02:40:32;101353.97;;;1.54;100.00
43683;BME280;29285;52.128;21.060;2023-02-11T02:45:37;101348.02;;;1.54;100.00
43683;BME280;29285;52.128;21.060;2023-02-11T02:50:37;101343.52;;;1.58;100.00
43683;BME280;29285;52.128;21.060;2023-02-11T02:55:51;101334.38;;;1.56;100.00
43683;BME280;29285;52.128;21.060;2023-02-11T03:01:01;101329.29;;;1.52;100.00
43683;BME280;29285;52.128;21.060;2023-02-11T03:11:05;101331.77;;;1.55;100.00
43683;BME280;29285;52.128;21.060;2023-02-11T03:16:08;101322.20;;;1.55;100.00
43683;BME280;29285;52.128;21.060;2023-02-11T03:21:11;101316.62;;;1.57;100.00
43683;BME280;29285;52.128;21.060;2023-02-11T03:26:16;101303.52;;;1.58;100.00
43683;BME280;29285;52.128;21.060;2023-02-11T03:31:19;101293.49;;;1.61;100.00
43683;BME280;29285;52.128;21.060;2023-02-11T03:36:23;101283.32;;;1.58;100.00
43683;BME280;29285;52.128;21.060;2023-02-11T03:41:26;101280.71;;;1.57;100.00
43683;BME280;29285;52.128;21.060;2023-02-11T03:46:31;101271.50;;;1.58;100.00
43683;BME280;29285;52.128;21.060;2023-02-11T03:51:33;101258.44;;;1.61;100.00
43683;BME280;29285;52.128;21.060;2023-02-11T03:56:43;101250.97;;;1.63;100.00
43683;BME280;29285;52.128;21.060;2023-02-11T04:01:48;101245.30;;;1.62;100.00
43683;BME280;29285;52.128;21.060;2023-02-11T04:06:49;101243.36;;;1.65;100.00
43683;BME280;29285;52.128;21.060;2023-02-11T04:11:50;101235.88;;;1.66;100.00
43683;BME280;29285;52.128;21.060;2023-02-11T04:16:51;101202.46;;;1.65;100.00
43683;BME280;29285;52.128;21.060;2023-02-11T04:21:52;101181.95;;;1.61;100.00
43683;BME280;29285;52.128;21.060;2023-02-11T04:26:53;101171.00;;;1.60;100.00
43683;BME280;29285;52.128;21.060;2023-02-11T04:31:53;101177.70;;;1.61;100.00
43683;BME280;29285;52.128;21.060;2023-02-11T04:36:54;101172.87;;;1.60;100.00
43683;BME280;29285;52.128;21.060;2023-02-11T04:41:55;101160.17;;;1.58;100.00
43683;BME280;29285;52.128;21.060;2023-02-11T04:46:56;101154.73;;;1.60;100.00
43683;BME280;29285;52.128;21.060;2023-02-11T04:51:57;101140.20;;;1.55;100.00
43683;BME280;29285;52.128;21.060;2023-02-11T04:56:58;101125.21;;;1.52;100.00
43683;BME280;29285;52.128;21.060;2023-02-11T05:01:59;101109.73;;;1.49;100.00
43683;BME280;29285;52.128;21.060;2023-02-11T05:07:00;101099.93;;;1.48;100.00
43683;BME280;29285;52.128;21.060;2023-02-11T05:12:01;101095.34;;;1.48;100.00
43683;BME280;29285;52.128;21.060;2023-02-11T05:17:01;101091.41;;;1.49;100.00
43683;BME280;29285;52.128;21.060;2023-02-11T05:22:02;101077.89;;;1.48;100.00
43683;BME280;29285;52.128;21.060;2023-02-11T05:27:03;101073.44;;;1.48;100.00
43683;BME280;29285;52.128;21.060;2023-02-11T05:32:04;101057.80;;;1.46;100.00
43683;BME280;29285;52.128;21.060;2023-02-11T05:37:06;101042.70;;;1.50;100.00
43683;BME280;29285;52.128;21.060;2023-02-11T05:42:07;101045.56;;;1.48;100.00
43683;BME280;29285;52.128;21.060;2023-02-11T05:47:08;101044.02;;;1.48;100.00
43683;BME280;29285;52.128;21.060;2023-02-11T05:52:09;101046.05;;;1.47;100.00
43683;BME280;29285;52.128;21.060;2023-02-11T05:57:10;101044.97;;;1.46;100.00
43683;BME280;29285;52.128;21.060;2023-02-11T06:02:11;101040.17;;;1.51;100.00
43683;BME280;29285;52.128;21.060;2023-02-11T06:07:12;101025.91;;;1.54;100.00
43683;BME280;29285;52.128;21.060;2023-02-11T06:12:13;101013.96;;;1.55;100.00
43683;BME280;29285;52.128;21.060;2023-02-11T06:17:14;101017.44;;;1.62;100.00
43683;BME280;29285;52.128;21.060;2023-02-11T06:22:15;101017.41;;;1.66;100.00
43683;BME280;29285;52.128;21.060;2023-02-11T06:27:16;101009.83;;;1.70;100.00
43683;BME280;29285;52.128;21.060;2023-02-11T06:32:18;101010.17;;;1.70;100.00
43683;BME280;29285;52.128;21.060;2023-02-11T06:37:20;100992.00;;;1.75;100.00
43683;BME280;29285;52.128;21.060;2023-02-11T06:42:27;100995.81;;;1.77;100.00
43683;BME280;29285;52.128;21.060;2023-02-11T06:47:28;100978.89;;;1.77;100.00
43683;BME280;29285;52.128;21.060;2023-02-11T06:52:29;100974.41;;;1.76;100.00
43683;BME280;29285;52.128;21.060;2023-02-11T06:57:30;100968.45;;;1.83;100.00
43683;BME280;29285;52.128;21.060;2023-02-11T07:02:31;100970.94;;;1.86;100.00
43683;BME280;29285;52.128;21.060;2023-02-11T07:07:32;100965.98;;;1.92;100.00
43683;BME280;29285;52.128;21.060;2023-02-11T07:12:32;100950.66;;;1.94;100.00
43683;BME280;29285;52.128;21.060;2023-02-11T07:17:33;100944.93;;;1.98;100.00
43683;BME280;29285;52.128;21.060;2023-02-11T07:22:35;100949.95;;;2.00;100.00
43683;BME280;29285;52.128;21.060;2023-02-11T07:27:36;100951.46;;;1.99;100.00
43683;BME280;29285;52.128;21.060;2023-02-11T07:32:37;100958.66;;;1.99;100.00
43683;BME280;29285;52.128;21.060;2023-02-11T07:37:38;100962.19;;;1.97;100.00
43683;BME280;29285;52.128;21.060;2023-02-11T07:42:42;100965.63;;;1.97;100.00
43683;BME280;29285;52.128;21.060;2023-02-11T07:47:43;100960.13;;;1.91;100.00
43683;BME280;29285;52.128;21.060;2023-02-11T07:52:45;100953.73;;;1.83;100.00
43683;BME280;29285;52.128;21.060;2023-02-11T07:57:46;100939.73;;;1.72;100.00
43683;BME280;29285;52.128;21.060;2023-02-11T08:02:47;100943.02;;;1.74;100.00
43683;BME280;29285;52.128;21.060;2023-02-11T08:07:51;100936.23;;;1.76;100.00
43683;BME280;29285;52.128;21.060;2023-02-11T08:12:53;100944.30;;;1.76;100.00
43683;BME280;29285;52.128;21.060;2023-02-11T08:17:54;100936.83;;;1.72;100.00
43683;BME280;29285;52.128;21.060;2023-02-11T08:22:55;100933.61;;;1.62;100.00
43683;BME280;29285;52.128;21.060;2023-02-11T08:27:56;100926.17;;;1.48;100.00
43683;BME280;29285;52.128;21.060;2023-02-11T08:32:57;100922.00;;;1.46;100.00
43683;BME280;29285;52.128;21.060;2023-02-11T08:37:58;100910.96;;;1.48;100.00
43683;BME280;29285;52.128;21.060;2023-02-11T08:42:59;100905.34;;;1.78;100.00
43683;BME280;29285;52.128;21.060;2023-02-11T08:48:00;100904.27;;;1.94;100.00
43683;BME280;29285;52.128;21.060;2023-02-11T08:53:00;100898.65;;;1.83;100.00
43683;BME280;29285;52.128;21.060;2023-02-11T08:58:01;100884.30;;;1.66;100.00
43683;BME280;29285;52.128;21.060;2023-02-11T09:03:02;100870.30;;;1.62;100.00
43683;BME280;29285;52.128;21.060;2023-02-11T09:08:03;100849.97;;;1.56;100.00
43683;BME280;29285;52.128;21.060;2023-02-11T09:13:05;100847.52;;;1.78;100.00
43683;BME280;29285;52.128;21.060;2023-02-11T09:18:06;100844.18;;;2.00;100.00
43683;BME280;29285;52.128;21.060;2023-02-11T09:23:08;100820.20;;;2.00;100.00
43683;BME280;29285;52.128;21.060;2023-02-11T09:28:09;100809.91;;;1.92;100.00
43683;BME280;29285;52.128;21.060;2023-02-11T09:33:11;100819.19;;;1.93;100.00
43683;BME280;29285;52.128;21.060;2023-02-11T09:38:12;100826.30;;;1.79;100.00
43683;BME280;29285;52.128;21.060;2023-02-11T09:43:23;100846.60;;;1.76;100.00
43683;BME280;29285;52.128;21.060;2023-02-11T09:48:28;100850.65;;;1.80;100.00
43683;BME280;29285;52.128;21.060;2023-02-11T09:53:34;100853.00;;;1.85;100.00
43683;BME280;29285;52.128;21.060;2023-02-11T09:58:40;100865.90;;;1.81;100.00
43683;BME280;29285;52.128;21.060;2023-02-11T10:03:52;100859.52;;;1.79;100.00
43683;BME280;29285;52.128;21.060;2023-02-11T10:09:03;100830.67;;;1.82;100.00
43683;BME280;29285;52.128;21.060;2023-02-11T10:24:37;100807.48;;;1.78;100.00
43683;BME280;29285;52.128;21.060;2023-02-11T10:29:45;100817.70;;;1.89;100.00
43683;BME280;29285;52.128;21.060;2023-02-11T10:34:49;100804.29;;;1.93;100.00
43683;BME280;29285;52.128;21.060;2023-02-11T10:39:51;100791.35;;;1.95;100.00
43683;BME280;29285;52.128;21.060;2023-02-11T10:44:59;100773.64;;;1.92;100.00
43683;BME280;29285;52.128;21.060;2023-02-11T10:50:03;100762.77;;;1.82;100.00
43683;BME280;29285;52.128;21.060;2023-02-11T10:55:21;100751.84;;;1.84;100.00
43683;BME280;29285;52.128;21.060;2023-02-11T11:05:31;100737.95;;;1.89;100.00
43683;BME280;29285;52.128;21.060;2023-02-11T11:10:39;100732.84;;;1.90;100.00
43683;BME280;29285;52.128;21.060;2023-02-11T11:15:43;100724.44;;;1.90;100.00
43683;BME280;29285;52.128;21.060;2023-02-11T11:20:54;100720.63;;;1.94;100.00
43683;BME280;29285;52.128;21.060;2023-02-11T11:25:59;100736.45;;;1.97;100.00
43683;BME280;29285;52.128;21.060;2023-02-11T11:31:02;100747.45;;;2.06;100.00
43683;BME280;29285;52.128;21.060;2023-02-11T11:46:41;100762.20;;;2.35;100.00
43683;BME280;29285;52.128;21.060;2023-02-11T11:51:46;100754.27;;;2.39;100.00
43683;BME280;29285;52.128;21.060;2023-02-11T11:56:59;100744.43;;;2.44;100.00
43683;BME280;29285;52.128;21.060;2023-02-11T12:07:16;100724.48;;;2.47;100.00
43683;BME280;29285;52.128;21.060;2023-02-11T12:17:37;100715.84;;;2.44;100.00
43683;BME280;29285;52.128;21.060;2023-02-11T12:32:59;100704.35;;;2.59;100.00
43683;BME280;29285;52.128;21.060;2023-02-11T12:43:36;100708.56;;;2.71;100.00
43683;BME280;29285;52.128;21.060;2023-02-11T12:54:05;100700.40;;;2.90;100.00
43683;BME280;29285;52.128;21.060;2023-02-11T13:04:34;100697.02;;;3.09;100.00
43683;BME280;29285;52.128;21.060;2023-02-11T13:09:43;100676.39;;;3.14;100.00
43683;BME280;29285;52.128;21.060;2023-02-11T13:14:47;100677.85;;;3.19;100.00
43683;BME280;29285;52.128;21.060;2023-02-11T13:19:52;100678.80;;;3.24;100.00
43683;BME280;29285;52.128;21.060;2023-02-11T13:30:11;100682.15;;;3.38;100.00
43683;BME280;29285;52.128;21.060;2023-02-11T13:35:31;100690.20;;;3.46;100.00
43683;BME280;29285;52.128;21.060;2023-02-11T13:40:36;100684.17;;;3.54;100.00
43683;BME280;29285;52.128;21.060;2023-02-11T13:45:56;100679.58;;;3.56;100.00
43683;BME280;29285;52.128;21.060;2023-02-11T13:50:59;100664.83;;;3.56;100.00
43683;BME280;29285;52.128;21.060;2023-02-11T13:56:09;100667.26;;;3.58;100.00
43683;BME280;29285;52.128;21.060;2023-02-11T14:01:11;100663.52;;;3.61;100.00
43683;BME280;29285;52.128;21.060;2023-02-11T14:06:32;100678.30;;;3.62;100.00
43683;BME280;29285;52.128;21.060;2023-02-11T14:17:28;100673.02;;;3.65;100.00
43683;BME280;29285;52.128;21.060;2023-02-11T14:22:39;100677.36;;;3.67;100.00
43683;BME280;29285;52.128;21.060;2023-02-11T14:27:46;100678.70;;;3.65;100.00
43683;BME280;29285;52.128;21.060;2023-02-11T14:43:12;100687.09;;;3.64;100.00
43683;BME280;29285;52.128;21.060;2023-02-11T14:48:17;100701.04;;;3.66;100.00
43683;BME280;29285;52.128;21.060;2023-02-11T14:53:20;100702.59;;;3.67;100.00
43683;BME280;29285;52.128;21.060;2023-02-11T14:58:23;100708.98;;;3.69;100.00
43683;BME280;29285;52.128;21.060;2023-02-11T15:03:25;100720.65;;;3.69;100.00
43683;BME280;29285;52.128;21.060;2023-02-11T15:08:26;100724.32;;;3.73;100.00
43683;BME280;29285;52.128;21.060;2023-02-11T15:13:28;100723.81;;;3.73;100.00
43683;BME280;29285;52.128;21.060;2023-02-11T15:18:32;100728.97;;;3.74;100.00
43683;BME280;29285;52.128;21.060;2023-02-11T15:23:34;100728.61;;;3.73;100.00
43683;BME280;29285;52.128;21.060;2023-02-11T15:28:35;100738.04;;;3.72;100.00
43683;BME280;29285;52.128;21.060;2023-02-11T15:33:36;100734.29;;;3.74;100.00
43683;BME280;29285;52.128;21.060;2023-02-11T15:38:37;100737.63;;;3.77;100.00
43683;BME280;29285;52.128;21.060;2023-02-11T15:43:39;100748.65;;;3.80;100.00
43683;BME280;29285;52.128;21.060;2023-02-11T15:48:41;100747.62;;;3.80;100.00
43683;BME280;29285;52.128;21.060;2023-02-11T15:53:43;100752.06;;;3.79;100.00
43683;BME280;29285;52.128;21.060;2023-02-11T15:58:47;100753.25;;;3.78;100.00
43683;BME280;29285;52.128;21.060;2023-02-11T16:03:49;100750.87;;;3.79;100.00
43683;BME280;29285;52.128;21.060;2023-02-11T16:09:03;100766.70;;;3.81;100.00
43683;BME280;29285;52.128;21.060;2023-02-11T16:19:24;100767.54;;;3.80;100.00
43683;BME280;29285;52.128;21.060;2023-02-11T16:24:27;100774.44;;;3.81;100.00
43683;BME280;29285;52.128;21.060;2023-02-11T16:29:30;100788.94;;;3.87;100.00
43683;BME280;29285;52.128;21.060;2023-02-11T16:34:31;100790.73;;;3.90;100.00
43683;BME280;29285;52.128;21.060;2023-02-11T16:39:32;100801.55;;;3.91;100.00
43683;BME280;29285;52.128;21.060;2023-02-11T16:44:33;100807.63;;;3.95;100.00
43683;BME280;29285;52.128;21.060;2023-02-11T16:49:35;100818.13;;;3.96;100.00
43683;BME280;29285;52.128;21.060;2023-02-11T16:54:37;100818.19;;;3.99;100.00
43683;BME280;29285;52.128;21.060;2023-02-11T16:59:38;100823.83;;;3.98;100.00
43683;BME280;29285;52.128;21.060;2023-02-11T17:04:39;100831.24;;;4.00;100.00
43683;BME280;29285;52.128;21.060;2023-02-11T17:09:40;100837.83;;;4.02;100.00
43683;BME280;29285;52.128;21.060;2023-02-11T17:14:41;100844.23;;;4.06;100.00
43683;BME280;29285;52.128;21.060;2023-02-11T17:19:42;100855.31;;;4.10;100.00
43683;BME280;29285;52.128;21.060;2023-02-11T17:24:43;100866.55;;;4.14;100.00
43683;BME280;29285;52.128;21.060;2023-02-11T17:29:44;100869.52;;;4.17;100.00
43683;BME280;29285;52.128;21.060;2023-02-11T17:34:45;100881.25;;;4.19;100.00
43683;BME280;29285;52.128;21.060;2023-02-11T17:39:46;100886.80;;;4.22;100.00
43683;BME280;29285;52.128;21.060;2023-02-11T17:44:48;100891.29;;;4.23;100.00
43683;BME280;29285;52.128;21.060;2023-02-11T17:49:49;100892.86;;;4.25;100.00
43683;BME280;29285;52.128;21.060;2023-02-11T17:54:51;100905.75;;;4.25;100.00
43683;BME280;29285;52.128;21.060;2023-02-11T17:59:51;100906.89;;;4.31;100.00
43683;BME280;29285;52.128;21.060;2023-02-11T18:04:52;100912.17;;;4.39;100.00
43683;BME280;29285;52.128;21.060;2023-02-11T18:09:57;100912.98;;;4.46;100.00
43683;BME280;29285;52.128;21.060;2023-02-11T18:14:58;100919.75;;;4.39;100.00
43683;BME280;29285;52.128;21.060;2023-02-11T18:19:59;100926.80;;;4.40;100.00
43683;BME280;29285;52.128;21.060;2023-02-11T18:24:59;100928.55;;;4.42;100.00
43683;BME280;29285;52.128;21.060;2023-02-11T18:30:00;100932.09;;;4.37;100.00
43683;BME280;29285;52.128;21.060;2023-02-11T18:35:05;100936.04;;;4.37;100.00
43683;BME280;29285;52.128;21.060;2023-02-11T18:40:08;100943.27;;;4.38;100.00
43683;BME280;29285;52.128;21.060;2023-02-11T18:45:10;100953.60;;;4.40;100.00
43683;BME280;29285;52.128;21.060;2023-02-11T18:50:12;100954.80;;;4.39;100.00
43683;BME280;29285;52.128;21.060;2023-02-11T18:55:15;100964.80;;;4.42;100.00
43683;BME280;29285;52.128;21.060;2023-02-11T19:00:16;100969.11;;;4.42;100.00
43683;BME280;29285;52.128;21.060;2023-02-11T19:05:17;100973.07;;;4.42;100.00
43683;BME280;29285;52.128;21.060;2023-02-11T19:10:18;100978.39;;;4.42;100.00
43683;BME280;29285;52.128;21.060;2023-02-11T19:15:18;100994.34;;;4.41;100.00
43683;BME280;29285;52.128;21.060;2023-02-11T19:20:19;100998.20;;;4.45;100.00
43683;BME280;29285;52.128;21.060;2023-02-11T19:25:20;101007.41;;;4.49;100.00
43683;BME280;29285;52.128;21.060;2023-02-11T19:30:21;101015.31;;;4.50;100.00
43683;BME280;29285;52.128;21.060;2023-02-11T19:35:22;101022.41;;;4.53;100.00
43683;BME280;29285;52.128;21.060;2023-02-11T19:40:23;101025.20;;;4.54;100.00
43683;BME280;29285;52.128;21.060;2023-02-11T19:45:24;101034.14;;;4.54;100.00
43683;BME280;29285;52.128;21.060;2023-02-11T19:50:28;101037.86;;;4.60;100.00
43683;BME280;29285;52.128;21.060;2023-02-11T19:55:29;101042.10;;;4.66;100.00
43683;BME280;29285;52.128;21.060;2023-02-11T20:00:30;101046.04;;;4.74;100.00
43683;BME280;29285;52.128;21.060;2023-02-11T20:05:31;101061.64;;;4.81;100.00
43683;BME280;29285;52.128;21.060;2023-02-11T20:10:33;101083.79;;;4.88;100.00
43683;BME280;29285;52.128;21.060;2023-02-11T20:15:34;101098.70;;;4.94;100.00
43683;BME280;29285;52.128;21.060;2023-02-11T20:20:36;101102.19;;;4.97;100.00
43683;BME280;29285;52.128;21.060;2023-02-11T20:25:38;101107.89;;;4.98;100.00
43683;BME280;29285;52.128;21.060;2023-02-11T20:30:38;101113.07;;;4.99;100.00
43683;BME280;29285;52.128;21.060;2023-02-11T20:35:39;101126.52;;;5.01;100.00
43683;BME280;29285;52.128;21.060;2023-02-11T20:40:40;101136.83;;;5.00;100.00
43683;BME280;29285;52.128;21.060;2023-02-11T20:45:44;101142.21;;;5.03;100.00
43683;BME280;29285;52.128;21.060;2023-02-11T20:50:45;101152.25;;;5.06;100.00
43683;BME280;29285;52.128;21.060;2023-02-11T20:55:46;101164.98;;;5.07;100.00
43683;BME280;29285;52.128;21.060;2023-02-11T21:00:47;101172.07;;;5.08;100.00
43683;BME280;29285;52.128;21.060;2023-02-11T21:05:48;101181.85;;;5.07;100.00
43683;BME280;29285;52.128;21.060;2023-02-11T21:10:49;101186.12;;;5.06;100.00
43683;BME280;29285;52.128;21.060;2023-02-11T21:15:53;101196.77;;;5.06;100.00
43683;BME280;29285;52.128;21.060;2023-02-11T21:20:55;101202.27;;;5.04;100.00
43683;BME280;29285;52.128;21.060;2023-02-11T21:25:56;101200.85;;;5.03;100.00
43683;BME280;29285;52.128;21.060;2023-02-11T21:30:57;101206.27;;;5.07;100.00
43683;BME280;29285;52.128;21.060;2023-02-11T21:35:58;101217.95;;;5.15;100.00
43683;BME280;29285;52.128;21.060;2023-02-11T21:41:03;101236.52;;;5.23;100.00
43683;BME280;29285;52.128;21.060;2023-02-11T21:46:08;101251.83;;;5.22;100.00
43683;BME280;29285;52.128;21.060;2023-02-11T21:51:13;101276.39;;;5.05;100.00
43683;BME280;29285;52.128;21.060;2023-02-11T21:56:15;101292.35;;;4.87;100.00
43683;BME280;29285;52.128;21.060;2023-02-11T22:01:18;101301.60;;;4.78;100.00
43683;BME280;29285;52.128;21.060;2023-02-11T22:06:21;101306.73;;;4.70;100.00
43683;BME280;29285;52.128;21.060;2023-02-11T22:11:22;101310.16;;;4.62;100.00
43683;BME280;29285;52.128;21.060;2023-02-11T22:16:24;101325.42;;;4.60;100.00
43683;BME280;29285;52.128;21.060;2023-02-11T22:21:26;101343.42;;;4.58;100.00
43683;BME280;29285;52.128;21.060;2023-02-11T22:26:27;101351.67;;;4.51;100.00
43683;BME280;29285;52.128;21.060;2023-02-11T22:31:30;101371.63;;;4.45;100.00
43683;BME280;29285;52.128;21.060;2023-02-11T22:36:32;101380.56;;;4.45;100.00
43683;BME280;29285;52.128;21.060;2023-02-11T22:41:34;101388.66;;;4.46;100.00
43683;BME280;29285;52.128;21.060;2023-02-11T22:46:35;101402.52;;;4.44;100.00
43683;BME280;29285;52.128;21.060;2023-02-11T22:51:37;101416.73;;;4.35;100.00
43683;BME280;29285;52.128;21.060;2023-02-11T22:56:38;101436.27;;;4.27;100.00
43683;BME280;29285;52.128;21.060;2023-02-11T23:01:40;101439.27;;;4.23;100.00
43683;BME280;29285;52.128;21.060;2023-02-11T23:06:41;101449.91;;;4.17;100.00
43683;BME280;29285;52.128;21.060;2023-02-11T23:11:42;101457.89;;;4.14;100.00
43683;BME280;29285;52.128;21.060;2023-02-11T23:16:43;101463.27;;;4.09;100.00
43683;BME280;29285;52.128;21.060;2023-02-11T23:21:44;101471.50;;;3.97;100.00
43683;BME280;29285;52.128;21.060;2023-02-11T23:26:54;101478.02;;;3.91;100.00
43683;BME280;29285;52.128;21.060;2023-02-11T23:31:55;101492.11;;;3.80;100.00
43683;BME280;29285;52.128;21.060;2023-02-11T23:36:56;101500.75;;;3.65;100.00
43683;BME280;29285;52.128;21.060;2023-02-11T23:41:58;101516.07;;;3.61;100.00
43683;BME280;29285;52.128;21.060;2023-02-11T23:46:59;101523.39;;;3.59;100.00
43683;BME280;29285;52.128;21.060;2023-02-11T23:52:00;101533.65;;;3.47;100.00
43683;BME280;29285;52.128;21.060;2023-02-11T23:57:01;101538.90;;;3.39;100.00
